Time;durP1;ratioP1;P1;durP2;ratioP2;P2;SDS_P1;SDS_P2;PMS_P1;PMS_P2;Temp;Humidity;BMP_temperature;BMP_pressure;BME280_temperature;BME280_humidity;BME280_pressure;Samples;Min_cycle;Max_cycle;Signal;HPM_P1;HPM_P2
2021/07/10 00:00:12;;;;;;;;;12.50;11.25;;;;;21.84;48.98;101443.00;5100338;27;45276;-53
2021/07/10 00:02:38;;;;;;;;;16.50;12.75;;;;;21.83;48.95;101437.75;5100470;27;45342;-52
2021/07/10 00:05:04;;;;;;;;;13.50;11.00;;;;;21.82;48.90;101438.69;5082257;27;45342;-52
2021/07/10 00:07:30;;;;;;;;;13.75;10.50;;;;;21.80;49.11;101433.41;5100520;27;45362;-53
2021/07/10 00:09:55;;;;;;;;;11.75;10.50;;;;;21.79;49.26;101430.81;5081733;27;47228;-53
2021/07/10 00:12:20;;;;;;;;;14.75;12.25;;;;;21.76;48.89;101421.16;5101428;27;45260;-53
2021/07/10 00:14:46;;;;;;;;;13.25;12.50;;;;;21.77;49.25;101430.03;5101508;27;45261;-54
2021/07/10 00:17:11;;;;;;;;;11.25;11.00;;;;;21.75;48.86;101422.09;5103964;27;45306;-54
2021/07/10 00:19:37;;;;;;;;;13.00;12.50;;;;;21.71;49.23;101416.03;5103955;27;45251;-54
2021/07/10 00:22:02;;;;;;;;;13.75;11.75;;;;;21.73;49.28;101426.63;5103766;27;45176;-50
2021/07/10 00:24:30;;;;;;;;;7.25;6.25;;;;;21.71;48.92;101424.03;5104109;27;45335;-53
2021/07/10 00:26:57;;;;;;;;;12.50;11.00;;;;;21.71;49.66;101421.38;5103797;27;45528;-52
2021/07/10 00:29:23;;;;;;;;;11.25;10.25;;;;;21.66;49.29;101414.50;5103722;27;45322;-53
2021/07/10 00:31:48;;;;;;;;;12.00;10.50;;;;;21.67;49.09;101409.09;5103784;27;45326;-53
2021/07/10 00:34:13;;;;;;;;;13.75;11.00;;;;;21.67;49.29;101402.88;5103960;27;45351;-54
2021/07/10 00:36:39;;;;;;;;;13.00;12.75;;;;;21.64;49.55;101405.72;5103670;27;45303;-54
2021/07/10 00:39:05;;;;;;;;;11.50;11.50;;;;;21.62;49.35;101395.06;5081653;28;48190;-54
2021/07/10 00:41:30;;;;;;;;;15.00;13.00;;;;;21.57;49.36;101386.41;5102946;27;45433;-53
2021/07/10 00:43:55;;;;;;;;;12.00;10.50;;;;;21.56;49.65;101384.72;5103631;27;45445;-54
2021/07/10 00:46:22;;;;;;;;;14.25;11.50;;;;;21.55;49.38;101385.63;5103548;27;45549;-54
2021/07/10 00:48:48;;;;;;;;;10.75;10.75;;;;;21.53;49.54;101384.81;5103665;27;46743;-54
2021/07/10 00:51:14;;;;;;;;;9.25;9.00;;;;;21.50;49.74;101382.31;5103354;27;45240;-51
2021/07/10 00:53:40;;;;;;;;;11.75;10.50;;;;;21.48;49.90;101381.50;5103493;27;45176;-53
2021/07/10 00:56:06;;;;;;;;;9.00;9.00;;;;;21.46;50.09;101388.72;5103295;27;45381;-54
2021/07/10 00:58:33;;;;;;;;;12.25;9.25;;;;;21.43;49.53;101379.94;5084951;27;45448;-50
2021/07/10 01:00:58;;;;;;;;;13.25;12.25;;;;;21.43;49.59;101382.63;5081267;28;45436;-53
2021/07/10 01:03:25;;;;;;;;;27.75;25.50;;;;;21.41;49.79;101378.28;5096028;27;45272;-53
2021/07/10 01:05:51;;;;;;;;;10.50;10.00;;;;;21.39;49.53;101372.13;5103125;27;45485;-52
2021/07/10 01:08:16;;;;;;;;;9.50;9.00;;;;;21.38;49.91;101365.94;5081387;28;46179;-54
2021/07/10 01:10:42;;;;;;;;;9.50;9.50;;;;;21.35;50.00;101363.41;5102020;27;45346;-54
2021/07/10 01:13:08;;;;;;;;;9.00;7.75;;;;;21.34;49.83;101371.50;5102758;27;45287;-52
2021/07/10 01:15:34;;;;;;;;;13.25;11.25;;;;;21.33;50.00;101367.09;5102039;27;45248;-54
2021/07/10 01:17:59;;;;;;;;;14.00;12.25;;;;;21.31;50.07;101367.19;5103350;27;46213;-50
2021/07/10 01:20:27;;;;;;;;;14.00;12.50;;;;;21.30;50.21;101362.78;5102686;27;45232;-54
2021/07/10 01:22:53;;;;;;;;;14.50;13.75;;;;;21.30;49.92;101360.09;5103083;27;45398;-51
2021/07/10 01:25:23;;;;;;;;;18.50;15.25;;;;;21.29;49.68;101354.84;5102552;27;45512;-54
2021/07/10 01:27:51;;;;;;;;;15.00;14.25;;;;;21.28;50.12;101348.59;5102725;27;45335;-53
2021/07/10 01:30:20;;;;;;;;;16.25;12.00;;;;;21.29;50.31;101342.31;5102772;27;45402;-54
2021/07/10 01:32:47;;;;;;;;;12.50;10.00;;;;;21.29;49.78;101336.13;5102807;27;45370;-53
2021/07/10 01:35:13;;;;;;;;;11.75;11.25;;;;;21.28;49.75;101327.22;5081277;28;45489;-54
2021/07/10 01:37:43;;;;;;;;;11.50;11.00;;;;;21.27;50.41;101329.03;5096698;27;45441;-53
2021/07/10 01:40:11;;;;;;;;;15.75;15.75;;;;;21.26;50.29;101329.13;5102335;27;45333;-54
2021/07/10 01:42:36;;;;;;;;;24.50;21.25;;;;;21.24;49.88;101323.88;5102546;27;45272;-54
2021/07/10 01:45:02;;;;;;;;;14.75;14.50;;;;;21.23;49.93;101327.47;5102615;27;45235;-50
2021/07/10 01:47:28;;;;;;;;;14.00;14.00;;;;;21.20;50.12;101313.41;5102588;27;46618;-53
2021/07/10 01:49:53;;;;;;;;;11.75;11.75;;;;;21.21;50.15;101309.78;5102550;27;45173;-54
2021/07/10 01:52:18;;;;;;;;;16.25;11.25;;;;;21.19;50.03;101309.00;5084244;27;45239;-53
2021/07/10 01:54:44;;;;;;;;;13.25;13.25;;;;;21.19;50.37;101306.31;5102267;27;45465;-53
2021/07/10 01:57:10;;;;;;;;;11.00;9.50;;;;;21.16;50.55;101296.66;5089629;27;47053;-53
2021/07/10 01:59:37;;;;;;;;;14.25;12.50;;;;;21.16;50.11;101287.78;5102513;27;45263;-52
2021/07/10 02:02:02;;;;;;;;;13.75;13.50;;;;;21.13;50.66;101288.81;5102340;27;45398;-53
2021/07/10 02:04:28;;;;;;;;;9.50;8.75;;;;;21.14;50.51;101289.66;5102395;27;45335;-52
2021/07/10 02:06:53;;;;;;;;;12.75;11.75;;;;;21.11;50.37;101286.19;5102200;27;45990;-54
2021/07/10 02:09:18;;;;;;;;;14.25;12.50;;;;;21.11;50.76;101288.84;5102219;27;45322;-53
2021/07/10 02:11:46;;;;;;;;;13.00;13.00;;;;;21.11;50.52;101282.66;5102254;27;45358;-53
2021/07/10 02:14:16;;;;;;;;;12.50;12.25;;;;;21.11;50.85;101282.66;5100097;27;45508;-53
2021/07/10 02:16:43;;;;;;;;;15.75;12.00;;;;;21.09;50.35;101279.19;5102039;27;45308;-53
2021/07/10 02:19:08;;;;;;;;;11.75;11.75;;;;;21.08;50.63;101273.00;5083682;27;45450;-54
2021/07/10 02:21:34;;;;;;;;;15.25;11.25;;;;;21.06;51.05;101266.84;5101981;27;45517;-54
2021/07/10 02:24:00;;;;;;;;;13.25;11.75;;;;;21.05;51.00;101269.59;5102083;27;45276;-54
2021/07/10 02:26:25;;;;;;;;;11.00;11.00;;;;;21.03;50.42;101272.34;5101827;27;46242;-54
2021/07/10 02:28:50;;;;;;;;;10.00;9.25;;;;;21.02;50.81;101273.28;5080116;28;45344;-53
2021/07/10 02:31:16;;;;;;;;;13.25;12.00;;;;;21.01;50.52;101278.72;5097090;27;45309;-52
2021/07/10 02:33:42;;;;;;;;;13.00;11.25;;;;;21.00;51.08;101272.50;5080319;28;45307;-53
2021/07/10 02:36:07;;;;;;;;;13.50;11.75;;;;;21.00;51.18;101280.50;5095719;27;46038;-54
2021/07/10 02:38:33;;;;;;;;;12.25;10.50;;;;;20.98;50.95;101271.72;5101762;27;45307;-54
2021/07/10 02:40:58;;;;;;;;;12.00;10.00;;;;;20.97;51.02;101266.44;5101804;27;45391;-54
2021/07/10 02:43:23;;;;;;;;;11.25;10.00;;;;;20.96;50.97;101270.94;5101686;27;45478;-53
2021/07/10 02:45:49;;;;;;;;;10.25;10.25;;;;;20.91;50.96;101256.94;5101553;27;45472;-53
2021/07/10 02:48:14;;;;;;;;;9.75;9.75;;;;;20.93;51.27;101261.25;5101798;27;45177;-53
2021/07/10 02:50:41;;;;;;;;;7.75;6.50;;;;;20.92;50.89;101256.84;5083326;27;45387;-53
2021/07/10 02:53:06;;;;;;;;;9.25;8.50;;;;;20.94;51.20;101254.09;5083374;27;45516;-51
2021/07/10 02:55:36;;;;;;;;;9.50;8.25;;;;;20.93;51.12;101252.38;5082636;27;47317;-50
2021/07/10 02:58:03;;;;;;;;;11.00;9.00;;;;;20.92;50.68;101251.50;5101694;27;45248;-52
2021/07/10 03:00:29;;;;;;;;;11.25;11.00;;;;;20.90;51.31;101242.69;5101361;27;45433;-54
2021/07/10 03:02:56;;;;;;;;;11.25;10.50;;;;;20.90;50.70;101248.03;5101435;27;45422;-51
2021/07/10 03:05:22;;;;;;;;;9.75;8.75;;;;;20.89;51.35;101240.09;5082927;27;46220;-54
2021/07/10 03:07:48;;;;;;;;;11.00;10.50;;;;;20.87;51.02;101239.34;5101402;27;45390;-52
2021/07/10 03:10:19;;;;;;;;;11.25;10.00;;;;;20.85;51.33;101239.38;5100983;27;45334;-54
2021/07/10 03:12:45;;;;;;;;;9.00;7.50;;;;;20.83;51.08;101241.28;5079622;28;45294;-53
2021/07/10 03:15:13;;;;;;;;;12.00;12.00;;;;;20.83;50.92;101235.06;5078665;27;45337;-54
2021/07/10 03:17:39;;;;;;;;;10.75;10.00;;;;;20.82;51.24;101233.34;5101230;27;45425;-52
2021/07/10 03:20:06;;;;;;;;;10.75;10.00;;;;;20.80;51.40;101230.75;5100870;27;45314;-54
2021/07/10 03:22:32;;;;;;;;;10.50;9.50;;;;;20.76;51.19;101222.00;5101222;27;45471;-53
2021/07/10 03:24:57;;;;;;;;;10.00;9.00;;;;;20.76;51.31;101227.34;5100643;27;45177;-50
2021/07/10 03:27:23;;;;;;;;;11.75;11.00;;;;;20.75;50.95;101225.66;5100997;27;45195;-53
2021/07/10 03:29:48;;;;;;;;;10.00;10.00;;;;;20.75;51.17;101230.09;5101019;27;45324;-54
2021/07/10 03:32:13;;;;;;;;;12.00;11.50;;;;;20.71;51.48;101221.38;5101049;27;45448;-54
2021/07/10 03:34:39;;;;;;;;;11.25;10.00;;;;;20.71;51.09;101223.19;5100854;27;46181;-53
2021/07/10 03:37:04;;;;;;;;;13.50;11.25;;;;;20.70;51.70;101218.75;5079415;28;45268;-55
2021/07/10 03:39:30;;;;;;;;;11.25;10.75;;;;;20.68;51.43;101215.28;5095567;27;45333;-52
2021/07/10 03:41:55;;;;;;;;;11.25;11.25;;;;;20.66;51.49;101215.38;5082373;27;45426;-54
2021/07/10 03:44:21;;;;;;;;;9.25;9.25;;;;;20.63;51.13;101212.88;5100796;27;45324;-52
2021/07/10 03:46:46;;;;;;;;;7.50;7.50;;;;;20.60;51.17;101207.66;5081608;27;45226;-53
2021/07/10 03:49:12;;;;;;;;;12.25;9.75;;;;;20.57;51.38;101215.84;5080815;27;45449;-54
2021/07/10 03:51:38;;;;;;;;;8.75;8.75;;;;;20.52;51.37;101217.88;5079176;28;45413;-52
2021/07/10 03:54:04;;;;;;;;;13.50;12.25;;;;;20.54;51.28;101226.66;5094894;27;45433;-54
2021/07/10 03:56:29;;;;;;;;;10.50;8.00;;;;;20.51;51.31;101219.66;5100824;27;45292;-54
2021/07/10 03:58:54;;;;;;;;;12.00;11.00;;;;;20.51;51.49;101221.47;5100616;27;45480;-52
2021/07/10 04:01:19;;;;;;;;;10.25;10.25;;;;;20.50;51.64;101217.91;5100588;27;45513;-53
2021/07/10 04:03:45;;;;;;;;;11.25;11.00;;;;;20.48;51.61;101224.25;5100462;27;45389;-52
2021/07/10 04:06:10;;;;;;;;;9.25;7.75;;;;;20.48;51.51;101225.16;5100615;27;45319;-52
2021/07/10 04:08:36;;;;;;;;;9.00;9.00;;;;;20.46;51.84;101214.56;5080632;27;45441;-53
2021/07/10 04:11:01;;;;;;;;;8.00;8.00;;;;;20.46;51.87;101211.00;5100519;27;45477;-51
2021/07/10 04:13:27;;;;;;;;;10.50;10.00;;;;;20.42;51.93;101217.44;5098767;27;46200;-53
2021/07/10 04:15:52;;;;;;;;;10.75;10.25;;;;;20.39;51.46;101213.13;5100712;27;45268;-53
2021/07/10 04:18:17;;;;;;;;;10.75;9.00;;;;;20.38;51.69;101213.19;5100568;27;45308;-54
2021/07/10 04:20:43;;;;;;;;;11.00;11.00;;;;;20.36;51.79;101205.25;5099981;27;45344;-54
2021/07/10 04:23:08;;;;;;;;;8.75;8.75;;;;;20.36;52.04;101207.06;5100245;27;46310;-53
2021/07/10 04:25:33;;;;;;;;;10.25;10.25;;;;;20.34;51.74;101207.13;5100212;27;45231;-54
2021/07/10 04:27:59;;;;;;;;;9.50;8.25;;;;;20.34;51.58;101207.13;5100231;27;45387;-53
2021/07/10 04:30:24;;;;;;;;;15.00;12.00;;;;;20.33;52.16;101205.41;5100467;27;45445;-53
2021/07/10 04:32:50;;;;;;;;;12.25;9.00;;;;;20.33;51.70;101205.41;5078873;27;45980;-52
2021/07/10 04:35:16;;;;;;;;;8.50;8.50;;;;;20.33;52.15;101213.41;5100266;27;45441;-54
2021/07/10 04:37:42;;;;;;;;;9.25;9.00;;;;;20.33;52.06;101212.56;5100168;27;45452;-53
2021/07/10 04:40:08;;;;;;;;;9.25;9.25;;;;;20.33;51.59;101216.06;5078079;28;45358;-53
2021/07/10 04:42:34;;;;;;;;;10.00;10.00;;;;;20.30;52.12;101206.41;5093631;27;45284;-52
2021/07/10 04:45:00;;;;;;;;;12.25;9.00;;;;;20.29;52.41;101203.81;5100346;27;45407;-54
2021/07/10 04:47:25;;;;;;;;;12.25;11.00;;;;;20.27;52.07;101217.22;5099990;27;45335;-53
2021/07/10 04:49:51;;;;;;;;;10.25;9.75;;;;;20.23;52.45;101210.31;5100062;27;45239;-53
2021/07/10 04:52:16;;;;;;;;;8.25;8.25;;;;;20.23;52.30;101210.31;5100004;27;45329;-53
2021/07/10 04:54:41;;;;;;;;;13.00;11.50;;;;;20.24;51.96;101212.03;5099813;27;45352;-52
2021/07/10 04:57:07;;;;;;;;;8.75;8.75;;;;;20.25;52.20;101220.91;5099992;27;45224;-52
2021/07/10 04:59:32;;;;;;;;;9.75;9.75;;;;;20.22;52.71;101219.25;5102801;27;45241;-53
2021/07/10 05:01:58;;;;;;;;;9.50;8.50;;;;;20.20;52.52;101218.47;5084830;27;45645;-54
2021/07/10 05:04:23;;;;;;;;;11.00;9.25;;;;;20.20;52.69;101217.59;5085154;27;45173;-52
2021/07/10 05:06:50;;;;;;;;;15.50;11.25;;;;;20.17;52.39;101215.06;5103375;27;45507;-52
2021/07/10 05:09:15;;;;;;;;;11.25;8.75;;;;;20.16;52.85;101213.34;5103180;27;45522;-53
2021/07/10 05:11:40;;;;;;;;;11.00;9.25;;;;;20.12;52.98;101217.94;5102914;27;46201;-54
2021/07/10 05:14:06;;;;;;;;;13.00;10.75;;;;;20.12;52.50;101217.94;5101475;27;45215;-53
2021/07/10 05:16:31;;;;;;;;;10.00;10.00;;;;;20.14;52.45;101222.28;5103517;27;45325;-52
2021/07/10 05:18:56;;;;;;;;;12.25;10.00;;;;;20.12;52.52;101215.28;5102980;27;45500;-52
2021/07/10 05:21:23;;;;;;;;;10.50;10.25;;;;;20.16;52.30;101227.53;5102823;27;46429;-51
2021/07/10 05:23:49;;;;;;;;;11.50;8.50;;;;;20.18;52.62;101227.47;5102827;27;45260;-54
2021/07/10 05:26:14;;;;;;;;;12.50;10.25;;;;;20.18;52.86;101227.47;5102935;27;45339;-53
2021/07/10 05:28:40;;;;;;;;;12.00;10.00;;;;;20.19;52.63;101219.41;5102761;27;45366;-52
2021/07/10 05:31:05;;;;;;;;;9.00;9.00;;;;;20.18;52.60;101216.81;5102922;27;46449;-54
2021/07/10 05:33:30;;;;;;;;;11.00;10.75;;;;;20.22;53.00;101215.72;5102812;27;45322;-52
2021/07/10 05:35:56;;;;;;;;;10.75;10.50;;;;;20.24;52.54;101221.84;5102994;27;45253;-54
2021/07/10 05:38:21;;;;;;;;;10.00;10.00;;;;;20.26;52.90;101219.97;5102597;27;45305;-53
2021/07/10 05:40:47;;;;;;;;;12.50;10.00;;;;;20.26;53.22;101207.50;5102603;27;46200;-54
2021/07/10 05:43:12;;;;;;;;;8.50;6.00;;;;;20.29;53.02;101206.50;5102653;27;45207;-54
2021/07/10 05:45:38;;;;;;;;;10.75;10.75;;;;;20.32;53.10;101210.81;5081110;28;45521;-54
2021/07/10 05:48:04;;;;;;;;;13.25;12.25;;;;;20.33;52.69;101208.06;5102579;27;45553;-53
2021/07/10 05:50:30;;;;;;;;;16.00;11.50;;;;;20.36;52.75;101204.38;5102486;27;46197;-54
2021/07/10 05:52:55;;;;;;;;;9.25;9.25;;;;;20.37;52.84;101196.28;5102646;27;45291;-54
2021/07/10 05:55:20;;;;;;;;;9.00;8.50;;;;;20.40;53.17;101195.28;5102534;27;45305;-53
2021/07/10 05:57:46;;;;;;;;;12.25;12.25;;;;;20.42;52.75;101202.28;5084408;27;45983;-53
2021/07/10 06:00:12;;;;;;;;;9.50;9.50;;;;;20.44;52.84;101202.22;5102394;27;45406;-53
2021/07/10 06:02:38;;;;;;;;;9.25;7.50;;;;;20.45;53.35;101196.81;5102447;27;45241;-54
2021/07/10 06:05:04;;;;;;;;;11.50;10.50;;;;;20.49;52.81;101189.53;5102528;27;45232;-54
2021/07/10 06:07:30;;;;;;;;;10.25;10.25;;;;;20.52;53.37;101194.69;5102253;27;45619;-53
2021/07/10 06:09:55;;;;;;;;;11.00;11.00;;;;;20.55;53.35;101191.88;5101034;27;45294;-53
2021/07/10 06:12:21;;;;;;;;;10.50;10.25;;;;;20.59;53.25;101192.56;5101990;27;45370;-53
2021/07/10 06:14:46;;;;;;;;;11.50;11.50;;;;;20.62;53.03;101192.44;5099119;27;45255;-53
2021/07/10 06:17:11;;;;;;;;;12.25;11.00;;;;;20.65;53.38;101186.94;5101994;27;45510;-53
2021/07/10 06:19:37;;;;;;;;;11.50;10.50;;;;;20.71;53.11;101197.34;5083515;27;48155;-50
2021/07/10 06:22:03;;;;;;;;;10.00;10.00;;;;;20.74;53.27;101186.53;5101716;27;45333;-52
2021/07/10 06:24:28;;;;;;;;;13.50;11.00;;;;;20.79;53.32;101194.28;5080518;28;45365;-54
2021/07/10 06:26:53;;;;;;;;;12.00;11.25;;;;;20.84;52.87;101178.03;5100788;27;45244;-52
2021/07/10 06:29:19;;;;;;;;;11.00;10.75;;;;;20.86;53.60;101178.84;5101908;27;46128;-52
2021/07/10 06:31:44;;;;;;;;;15.25;13.00;;;;;20.93;53.09;101183.78;5101803;27;45268;-51
2021/07/10 06:34:09;;;;;;;;;11.00;11.00;;;;;20.97;52.70;101180.94;5101996;27;45288;-51
2021/07/10 06:36:37;;;;;;;;;15.50;13.25;;;;;21.01;53.09;101188.75;5101679;27;45287;-56
2021/07/10 06:39:04;;;;;;;;;11.00;11.00;;;;;21.06;53.48;101185.84;5101722;27;45474;-55
2021/07/10 06:41:30;;;;;;;;;14.00;10.75;;;;;21.08;53.03;101187.50;5101478;27;45433;-58
2021/07/10 06:43:55;;;;;;;;;10.00;10.00;;;;;21.14;53.06;101182.78;5101691;27;45335;-58
2021/07/10 06:46:20;;;;;;;;;12.50;12.00;;;;;21.15;52.91;101177.34;5101708;27;45350;-59
2021/07/10 06:48:46;;;;;;;;;14.25;12.25;;;;;21.20;53.44;101182.47;5101602;27;45480;-58
2021/07/10 06:51:11;;;;;;;;;11.00;10.75;;;;;21.23;52.79;101179.59;5079805;28;45334;-57
2021/07/10 06:53:38;;;;;;;;;11.00;10.00;;;;;21.27;53.25;101168.69;5093343;27;45254;-53
2021/07/10 06:56:04;;;;;;;;;10.50;10.50;;;;;21.32;53.18;101168.47;5101417;27;45219;-55
2021/07/10 06:58:29;;;;;;;;;14.00;9.75;;;;;21.36;53.53;101158.47;5101293;27;45224;-59
2021/07/10 07:00:54;;;;;;;;;13.25;11.25;;;;;21.39;53.19;101164.50;5101119;27;45236;-58
2021/07/10 07:03:20;;;;;;;;;11.75;10.50;;;;;21.44;53.55;101158.91;5101595;27;45300;-58
2021/07/10 07:05:45;;;;;;;;;14.00;12.00;;;;;21.48;53.33;101170.31;5079441;28;45473;-58
2021/07/10 07:08:11;;;;;;;;;11.75;11.75;;;;;21.48;53.24;101160.47;5071124;28;47024;-58
2021/07/10 07:10:36;;;;;;;;;11.00;8.75;;;;;21.55;53.17;101169.03;5099600;27;45429;-58
2021/07/10 07:13:02;;;;;;;;;11.00;11.00;;;;;21.56;52.95;101168.97;5101167;27;45454;-58
2021/07/10 07:15:27;;;;;;;;;10.25;10.25;;;;;21.62;53.46;101164.25;5099692;27;45572;-58
2021/07/10 07:17:52;;;;;;;;;12.25;12.25;;;;;21.66;52.75;101161.34;5101172;27;45429;-58
2021/07/10 07:20:19;;;;;;;;;12.25;11.50;;;;;21.71;53.13;101161.06;5100869;27;45257;-58
2021/07/10 07:22:47;;;;;;;;;12.75;10.00;;;;;21.75;53.17;101150.13;5101095;27;45324;-59
2021/07/10 07:25:14;;;;;;;;;10.75;10.75;;;;;21.81;53.17;101153.41;5100680;27;45358;-59
2021/07/10 07:27:40;;;;;;;;;10.25;10.00;;;;;21.85;53.03;101152.31;5100814;27;45505;-58
2021/07/10 07:30:07;;;;;;;;;11.75;11.75;;;;;21.89;53.30;101153.84;5100751;27;45182;-58
2021/07/10 07:32:32;;;;;;;;;12.00;10.75;;;;;21.94;53.06;101153.59;5101084;27;45276;-58
2021/07/10 07:34:58;;;;;;;;;9.75;9.75;;;;;21.98;52.74;101153.34;5079149;28;45915;-58
2021/07/10 07:37:24;;;;;;;;;10.00;10.00;;;;;22.02;52.92;101149.53;5071114;28;45954;-58
2021/07/10 07:39:49;;;;;;;;;10.75;10.75;;;;;22.07;52.59;101142.13;5077441;28;45451;-58
2021/07/10 07:42:16;;;;;;;;;10.75;10.75;;;;;22.14;53.27;101137.28;5092788;27;45382;-61
2021/07/10 07:44:42;;;;;;;;;10.75;9.25;;;;;22.21;52.83;101143.16;5079846;27;47534;-61
2021/07/10 07:47:14;;;;;;;;;8.25;8.25;;;;;22.26;53.06;101143.75;5087261;27;45507;-60
2021/07/10 07:49:40;;;;;;;;;9.75;9.75;;;;;22.31;52.59;101136.31;5088771;27;45419;-62
2021/07/10 07:52:06;;;;;;;;;10.25;9.75;;;;;22.36;52.50;101142.28;5083238;27;45525;-58
2021/07/10 07:54:34;;;;;;;;;12.75;11.50;;;;;22.40;52.56;101138.50;5086669;27;45581;-61
2021/07/10 07:57:00;;;;;;;;;9.75;8.00;;;;;22.46;52.70;101131.91;5090705;27;45305;-60
2021/07/10 07:59:25;;;;;;;;;11.25;10.50;;;;;22.50;52.08;101138.84;5081456;27;45236;-61
2021/07/10 08:01:50;;;;;;;;;10.75;8.75;;;;;22.54;52.12;101137.72;5080519;27;45248;-59
2021/07/10 08:04:16;;;;;;;;;9.50;8.25;;;;;22.54;52.35;101135.03;5084125;27;46256;-59
2021/07/10 08:06:41;;;;;;;;;9.50;9.50;;;;;22.56;52.16;101134.94;5099364;27;45726;-61
2021/07/10 08:09:06;;;;;;;;;9.25;8.50;;;;;22.59;52.30;101139.25;5081739;27;45377;-60
2021/07/10 08:11:32;;;;;;;;;11.50;9.00;;;;;22.57;52.43;101131.31;5090148;27;45454;-59
2021/07/10 08:13:58;;;;;;;;;11.00;9.00;;;;;22.64;52.36;101140.72;5084415;27;45611;-60
2021/07/10 08:16:25;;;;;;;;;7.50;7.50;;;;;22.67;52.19;101135.16;5080679;27;46165;-61
2021/07/10 08:18:51;;;;;;;;;8.00;8.00;;;;;22.68;51.96;101133.38;5081041;27;45443;-60
2021/07/10 08:21:16;;;;;;;;;10.50;8.50;;;;;22.69;51.96;101140.41;5090419;27;45449;-58
2021/07/10 08:23:42;;;;;;;;;7.25;7.25;;;;;22.67;51.96;101137.84;5086076;27;45255;-59
2021/07/10 08:26:07;;;;;;;;;10.50;9.25;;;;;22.66;51.85;101132.59;5089204;27;46256;-59
2021/07/10 08:28:33;;;;;;;;;7.75;6.75;;;;;22.64;51.89;101135.34;5081184;27;45232;-59
2021/07/10 08:30:58;;;;;;;;;11.00;10.75;;;;;22.62;51.74;101131.91;5090428;27;45231;-58
2021/07/10 08:33:24;;;;;;;;;7.50;7.50;;;;;22.61;51.91;101132.84;5087512;27;45721;-59
2021/07/10 08:35:50;;;;;;;;;5.50;5.50;;;;;22.61;51.52;101130.16;5092525;27;46126;-59
2021/07/10 08:38:15;;;;;;;;;11.25;9.00;;;;;22.60;51.80;101128.44;5087573;27;45370;-58
2021/07/10 08:40:41;;;;;;;;;8.50;8.00;;;;;22.61;51.32;101122.13;5092881;27;45302;-59
2021/07/10 08:43:06;;;;;;;;;9.00;9.00;;;;;22.60;51.69;101131.09;5097378;27;45506;-58
2021/07/10 08:45:33;;;;;;;;;7.00;5.75;;;;;22.60;51.57;101124.91;5102085;27;46189;-58
2021/07/10 08:48:01;;;;;;;;;18.75;14.25;;;;;22.59;51.45;101124.06;5103187;27;45644;-58
2021/07/10 08:50:27;;;;;;;;;8.25;7.75;;;;;22.60;51.32;101128.44;5106145;27;45349;-58
2021/07/10 08:52:52;;;;;;;;;6.00;6.00;;;;;22.62;51.59;101125.69;5101933;27;45454;-58
2021/07/10 08:55:18;;;;;;;;;10.00;7.25;;;;;22.62;51.00;101126.53;5098959;27;46090;-58
2021/07/10 08:57:44;;;;;;;;;119.00;109.75;;;;;22.64;51.13;101124.66;5102823;27;45248;-58
2021/07/10 09:00:16;;;;;;;;;32.00;29.75;;;;;22.65;51.04;101126.34;5084905;27;45394;-58
2021/07/10 09:02:45;;;;;;;;;438.20;395.00;;;;;22.68;51.22;101139.56;5102927;27;45378;-58
2021/07/10 09:05:12;;;;;;;;;149.60;131.00;;;;;22.68;50.93;101134.22;5084527;27;47365;-58
2021/07/10 09:08:11;;;;;;;;;255.80;228.00;;;;;22.70;50.73;101139.47;5101229;27;45350;-58
2021/07/10 09:10:38;;;;;;;;;10.75;9.25;;;;;22.69;50.76;101135.06;5101224;27;45289;-59
2021/07/10 09:13:04;;;;;;;;;4.00;4.00;;;;;22.67;51.02;101145.03;5102647;27;45261;-59
2021/07/10 09:15:29;;;;;;;;;6.00;5.00;;;;;22.67;50.82;101139.66;5085930;27;45307;-58
2021/07/10 09:17:54;;;;;;;;;4.75;4.50;;;;;22.66;50.71;101149.50;5094474;27;45327;-59
2021/07/10 09:20:22;;;;;;;;;4.00;4.00;;;;;22.65;50.94;101145.09;5081043;27;45248;-59
2021/07/10 09:22:48;;;;;;;;;4.00;4.00;;;;;22.64;50.65;101148.75;5101378;27;45272;-58
2021/07/10 09:25:31;;;;;;;;;3.75;2.00;;;;;22.60;50.41;101155.22;5102199;27;45331;-51
2021/07/10 09:27:59;;;;;;;;;4.00;2.25;;;;;22.52;50.68;101146.78;5102229;27;45362;-52
2021/07/10 09:30:30;;;;;;;;;2.00;1.00;;;;;22.51;49.75;101153.94;5084297;27;45485;-48
2021/07/10 09:33:16;;;;;;;;;3.25;3.25;;;;;22.47;49.65;101149.72;5102535;27;45174;-52
2021/07/10 09:36:02;;;;;;;;;2.50;2.50;;;;;22.43;50.00;101141.94;5102657;27;45440;-53
2021/07/10 09:38:35;;;;;;;;;2.00;2.00;;;;;22.38;49.85;101120.81;5102112;27;45489;-51
2021/07/10 09:41:10;;;;;;;;;1.75;1.75;;;;;22.35;49.64;101124.50;5102331;27;45467;-50
2021/07/10 09:43:38;;;;;;;;;2.00;1.75;;;;;22.34;49.63;101130.81;5092387;27;45870;-53
2021/07/10 09:46:09;;;;;;;;;3.75;2.00;;;;;22.31;49.46;101130.97;5094483;27;45519;-51
2021/07/10 09:48:37;;;;;;;;;5.00;2.25;;;;;22.27;49.34;101129.41;5090375;27;45322;-53
2021/07/10 09:51:20;;;;;;;;;3.00;3.00;;;;;22.25;49.36;101120.63;5102137;27;45601;-51
2021/07/10 09:54:09;;;;;;;;;2.50;2.50;;;;;22.21;49.82;101119.94;5102127;27;45545;-52
2021/07/10 09:56:37;;;;;;;;;3.00;2.00;;;;;22.23;49.44;101117.16;5092145;27;46006;-51
2021/07/10 09:59:17;;;;;;;;;2.25;2.25;;;;;22.23;49.42;101130.56;5101844;27;45276;-48
2021/07/10 10:01:43;;;;;;;;;4.00;2.50;;;;;22.23;49.73;101114.50;5092323;27;45342;-52
2021/07/10 10:04:35;;;;;;;;;6.75;6.00;;;;;22.23;49.89;101115.34;5101892;27;46295;-50
2021/07/10 10:07:02;;;;;;;;;20.50;19.75;;;;;22.24;49.68;101110.88;5098728;27;46108;-49
2021/07/10 10:09:30;;;;;;;;;78.75;72.00;;;;;22.24;49.71;101113.56;5101588;27;45447;-51
2021/07/10 10:11:58;;;;;;;;;6.25;6.25;;;;;22.31;49.62;101114.06;5102040;27;45443;-51
2021/07/10 10:14:25;;;;;;;;;70.00;58.00;;;;;22.34;49.98;101113.84;5098600;27;45433;-51
2021/07/10 10:16:51;;;;;;;;;3.50;2.75;;;;;22.37;49.98;101113.72;5101993;27;46449;-52
2021/07/10 10:19:22;;;;;;;;;3.50;3.25;;;;;22.40;49.87;101113.53;5090574;27;45823;-52
2021/07/10 10:21:50;;;;;;;;;3.25;3.25;;;;;22.45;50.13;101124.88;5101697;27;45184;-50
2021/07/10 10:24:16;;;;;;;;;3.75;3.25;;;;;22.47;49.73;101116.75;5101580;27;45395;-49
2021/07/10 10:26:43;;;;;;;;;5.00;4.25;;;;;22.48;49.78;101113.13;5101500;27;46316;-51
2021/07/10 10:29:10;;;;;;;;;3.50;3.50;;;;;22.51;49.70;101121.81;5091800;27;45490;-52
2021/07/10 10:31:37;;;;;;;;;6.75;3.25;;;;;22.52;49.93;101122.69;5101738;27;45329;-51
2021/07/10 10:34:05;;;;;;;;;3.75;3.75;;;;;22.54;49.91;101129.69;5079950;28;45564;-50
2021/07/10 10:36:33;;;;;;;;;2.75;2.75;;;;;22.55;49.59;101117.13;5099034;27;46327;-52
2021/07/10 10:38:59;;;;;;;;;4.75;3.75;;;;;22.59;50.25;101109.78;5101309;27;45401;-50
2021/07/10 10:41:24;;;;;;;;;4.00;4.00;;;;;22.61;49.66;101108.75;5096479;27;45256;-51
2021/07/10 10:43:54;;;;;;;;;1.75;1.75;;;;;22.65;49.84;101096.03;5083524;27;45551;-51
2021/07/10 10:46:23;;;;;;;;;5.25;5.00;;;;;22.66;49.74;101093.25;5090347;27;45312;-52
2021/07/10 10:48:49;;;;;;;;;3.00;3.00;;;;;22.73;49.96;101093.78;5101154;27;45350;-51
2021/07/10 10:51:31;;;;;;;;;3.00;3.00;;;;;22.78;50.12;101090.78;5101161;27;45416;-51
2021/07/10 10:54:23;;;;;;;;;3.25;3.25;;;;;22.82;49.53;101078.97;5099583;27;45442;-52
2021/07/10 10:56:48;;;;;;;;;4.75;3.75;;;;;22.83;49.76;101083.34;5089874;27;45359;-51
2021/07/10 10:59:34;;;;;;;;;2.00;2.00;;;;;22.89;49.79;101086.53;5100986;27;45168;-49
2021/07/10 11:01:59;;;;;;;;;2.50;2.00;;;;;22.94;49.63;101080.88;5093437;27;45182;-52
2021/07/10 11:04:46;;;;;;;;;2.25;2.00;;;;;23.01;50.01;101086.75;5101126;27;45232;-53
2021/07/10 11:07:33;;;;;;;;;2.00;2.00;;;;;23.05;49.60;101086.44;5101216;27;45243;-49
2021/07/10 11:10:01;;;;;;;;;6.50;5.50;;;;;23.11;49.54;101095.09;5100610;27;45424;-51
2021/07/10 11:12:45;;;;;;;;;2.25;2.25;;;;;23.15;49.33;101083.22;5100804;27;45434;-52